Time;durP1;ratioP1;P1;durP2;ratioP2;P2;SDS_P1;SDS_P2;PMS_P1;PMS_P2;Temp;Humidity;BMP_temperature;BMP_pressure;BME280_temperature;BME280_humidity;BME280_pressure;Samples;Min_cycle;Max_cycle;Signal;HPM_P1;HPM_P2
2022/12/10 00:01:30;;;;;;;15.37;9.40;;;2.00;99.90;1.10;99600.00;;;;4820198;28;94094;-69
2022/12/10 00:03:56;;;;;;;15.40;9.33;;;1.40;99.90;1.10;99590.00;;;;4814434;28;93213;-69
2022/12/10 00:06:26;;;;;;;22.27;12.00;;;1.50;99.90;1.10;99597.00;;;;4814673;28;111792;-69
2022/12/10 00:08:51;;;;;;;18.83;10.37;;;2.20;99.90;1.20;99588.00;;;;4816859;28;93041;-69
2022/12/10 00:11:19;;;;;;;20.13;10.90;;;1.50;99.90;1.20;99593.00;;;;4811285;28;93367;-68
2022/12/10 00:13:46;;;;;;;16.20;9.63;;;2.00;99.90;1.20;99595.00;;;;4818747;28;94068;-70
2022/12/10 00:16:15;;;;;;;15.77;10.37;;;2.50;99.90;1.20;99604.00;;;;4816093;28;93282;-70
2022/12/10 00:18:41;;;;;;;18.33;11.57;;;1.50;99.90;1.20;99590.00;;;;4816555;28;94385;-69
2022/12/10 00:21:14;;;;;;;17.87;10.87;;;1.50;99.90;1.20;99595.00;;;;4812091;28;112770;-68
2022/12/10 00:23:40;;;;;;;20.10;9.97;;;1.50;99.90;1.20;99601.00;;;;4814873;28;93758;-67
2022/12/10 00:26:10;;;;;;;17.93;11.37;;;1.50;99.90;1.20;99596.00;;;;4814481;28;107892;-67
2022/12/10 00:28:36;;;;;;;14.17;8.47;;;1.50;99.90;1.20;99606.00;;;;4819487;28;97796;-71
2022/12/10 00:31:11;;;;;;;22.37;11.17;;;1.50;99.90;1.20;99597.00;;;;4816036;28;93649;-69
2022/12/10 00:33:38;;;;;;;16.40;10.63;;;1.50;99.90;1.20;99607.00;;;;4817939;28;110913;-67
2022/12/10 00:36:14;;;;;;;15.27;10.60;;;1.40;99.90;1.20;99599.00;;;;4816159;28;93713;-70
2022/12/10 00:38:41;;;;;;;13.20;9.60;;;1.50;99.90;1.20;99606.00;;;;4817513;28;95971;-66
2022/12/10 00:41:07;;;;;;;18.97;10.63;;;1.50;99.90;1.20;99607.00;;;;4817053;28;93304;-68
2022/12/10 00:43:34;;;;;;;20.07;10.27;;;1.40;99.90;1.10;99607.00;;;;4817495;28;123572;-69
2022/12/10 00:45:59;;;;;;;11.70;8.53;;;1.50;99.90;1.10;99607.00;;;;4796462;29;110923;-68
2022/12/10 00:48:25;;;;;;;18.07;11.93;;;1.40;99.90;1.10;99607.00;;;;4817160;28;108172;-69
2022/12/10 00:51:02;;;;;;;20.60;10.63;;;1.70;99.90;1.10;99603.00;;;;4816125;28;112292;-69
2022/12/10 00:53:30;;;;;;;14.23;9.87;;;1.40;99.90;1.10;99621.00;;;;4817792;28;95945;-68
2022/12/10 00:55:57;;;;;;;15.00;9.67;;;1.40;99.90;1.10;99605.00;;;;4816407;28;100373;-68
2022/12/10 00:58:23;;;;;;;21.13;10.60;;;1.40;99.90;1.10;99605.00;;;;4813449;28;92971;-68
2022/12/10 01:00:49;;;;;;;18.13;10.57;;;1.40;99.90;1.00;99601.00;;;;4811116;28;93957;-68
2022/12/10 01:03:15;;;;;;;16.63;12.07;;;2.30;99.90;1.00;99614.00;;;;4812597;28;106376;-67
2022/12/10 01:05:41;;;;;;;16.70;10.13;;;1.50;99.90;1.00;99600.00;;;;4808444;28;112356;-68
2022/12/10 01:08:07;;;;;;;19.73;11.53;;;1.30;99.90;1.00;99606.00;;;;4791479;28;92776;-67
2022/12/10 01:10:33;;;;;;;18.67;12.30;;;1.40;99.90;1.00;99612.00;;;;4814759;28;122750;-67
2022/12/10 01:12:58;;;;;;;17.27;10.07;;;1.30;99.90;1.00;99609.00;;;;4813757;28;120376;-67
2022/12/10 01:15:24;;;;;;;16.57;10.30;;;1.30;99.90;1.00;99612.00;;;;4813230;28;113073;-68
2022/12/10 01:17:50;;;;;;;18.60;10.40;;;1.30;99.90;1.00;99605.00;;;;4813426;28;107853;-69
2022/12/10 01:20:16;;;;;;;20.03;12.10;;;1.70;99.90;1.00;99607.00;;;;4811772;28;120606;-67
2022/12/10 01:22:41;;;;;;;16.63;11.17;;;1.30;99.90;0.90;99613.00;;;;4813597;28;92965;-68
2022/12/10 01:25:08;;;;;;;19.73;10.90;;;1.30;99.90;0.90;99616.00;;;;4816957;28;113154;-67
2022/12/10 01:27:33;;;;;;;20.40;11.87;;;1.40;99.90;1.00;99616.00;;;;4813744;28;96322;-69
2022/12/10 01:29:59;;;;;;;20.57;12.60;;;1.30;99.90;0.90;99613.00;;;;4809918;28;122952;-67
2022/12/10 01:32:24;;;;;;;26.13;12.47;;;1.30;99.90;0.90;99613.00;;;;4811705;28;121816;-68
2022/12/10 01:34:50;;;;;;;16.70;10.90;;;1.20;99.90;0.90;99625.00;;;;4812756;28;113194;-67
2022/12/10 01:37:16;;;;;;;22.43;12.43;;;1.20;99.90;0.90;99608.00;;;;4815396;28;108373;-69
2022/12/10 01:39:41;;;;;;;20.70;11.53;;;1.20;99.90;0.90;99621.00;;;;4812251;28;108665;-67
2022/12/10 01:42:12;;;;;;;20.47;11.77;;;1.20;99.90;0.90;99623.00;;;;4815453;28;113788;-70
2022/12/10 01:44:40;;;;;;;22.30;12.20;;;1.10;99.90;0.90;99621.00;;;;4816468;28;92294;-68
2022/12/10 01:47:06;;;;;;;18.60;11.17;;;1.20;99.90;0.90;99622.00;;;;4812832;28;92847;-67
2022/12/10 01:49:39;;;;;;;19.83;13.00;;;1.20;99.90;0.90;99625.00;;;;4816800;28;93090;-69
2022/12/10 01:52:09;;;;;;;23.47;12.63;;;1.20;99.90;0.80;99627.00;;;;4813883;28;106482;-66
2022/12/10 01:54:42;;;;;;;20.50;12.93;;;1.20;99.90;0.80;99628.00;;;;4814175;28;93068;-68
2022/12/10 01:57:21;;;;;;;15.50;12.20;;;1.20;99.90;0.80;99627.00;;;;4816341;28;92929;-68
2022/12/10 01:59:52;;;;;;;23.97;12.20;;;1.20;99.90;0.90;99624.00;;;;4811028;28;114727;-67
2022/12/10 02:02:43;;;;;;;19.50;11.40;;;1.20;99.90;0.80;99633.00;;;;4811732;28;93127;-68
2022/12/10 02:05:32;;;;;;;25.90;12.43;;;1.20;99.90;0.80;99626.00;;;;4792027;28;93083;-68
2022/12/10 02:08:13;;;;;;;24.77;12.97;;;1.20;99.90;0.80;99620.00;;;;4808766;28;93030;-67
2022/12/10 02:10:54;;;;;;;19.30;14.03;;;1.30;99.90;0.80;99627.00;;;;4784037;29;116877;-68
2022/12/10 02:13:41;;;;;;;23.00;13.63;;;1.10;99.90;0.80;99617.00;;;;4810752;28;93103;-68
2022/12/10 02:16:17;;;;;;;22.50;13.00;;;1.30;99.90;0.80;99618.00;;;;4806743;28;92969;-69
2022/12/10 02:18:51;;;;;;;25.70;14.03;;;1.20;99.90;0.80;99613.00;;;;4796674;29;94018;-68
2022/12/10 02:21:26;;;;;;;21.60;13.73;;;1.20;99.90;0.80;99609.00;;;;4794677;28;93988;-68
2022/12/10 02:24:04;;;;;;;20.70;13.40;;;1.50;99.90;0.80;99618.00;;;;4791716;29;93826;-66
2022/12/10 02:26:47;;;;;;;18.90;12.33;;;1.20;99.90;0.80;99616.00;;;;4811658;28;92919;-66
2022/12/10 02:29:19;;;;;;;27.47;14.13;;;1.20;99.90;0.80;99616.00;;;;4810597;28;92959;-70
2022/12/10 02:31:51;;;;;;;24.83;13.53;;;1.10;99.90;0.80;99613.00;;;;4816143;28;93670;-67
2022/12/10 02:34:20;;;;;;;24.67;15.03;;;1.10;99.90;0.80;99621.00;;;;4795409;28;112051;-68
2022/12/10 02:36:49;;;;;;;30.87;15.07;;;1.20;99.90;0.80;99619.00;;;;4810405;28;93772;-67
2022/12/10 02:39:21;;;;;;;23.73;12.90;;;1.10;99.90;0.80;99620.00;;;;4797646;28;92804;-68
2022/12/10 02:41:54;;;;;;;22.20;13.37;;;1.10;99.90;0.80;99616.00;;;;4797850;28;93797;-67
2022/12/10 02:44:23;;;;;;;18.33;11.67;;;1.20;99.90;0.80;99616.00;;;;4815692;28;108256;-68
2022/12/10 02:46:54;;;;;;;25.00;13.93;;;1.10;99.90;0.80;99613.00;;;;4810379;28;96857;-67
2022/12/10 02:49:21;;;;;;;16.23;11.70;;;1.10;99.90;0.80;99608.00;;;;4798075;28;93064;-67
2022/12/10 02:51:47;;;;;;;22.37;12.90;;;1.10;99.90;0.80;99616.00;;;;4792953;28;93995;-67
2022/12/10 02:54:46;;;;;;;22.57;12.73;;;2.10;99.90;0.70;99614.00;;;;4811306;28;122619;-67
2022/12/10 02:58:07;;;;;;;25.13;13.53;;;1.10;99.90;0.70;99599.00;;;;4817295;28;102386;-67
2022/12/10 03:00:51;;;;;;;21.83;13.13;;;1.10;99.90;0.70;99606.00;;;;4801316;28;92946;-68
2022/12/10 03:03:25;;;;;;;25.90;13.63;;;1.10;99.90;0.70;99610.00;;;;4811286;28;93781;-68
2022/12/10 03:06:08;;;;;;;24.67;15.37;;;1.10;99.90;0.60;99612.00;;;;4793622;28;93256;-68
2022/12/10 03:08:52;;;;;;;30.27;15.33;;;1.10;99.90;0.60;99606.00;;;;4809878;28;93057;-66
2022/12/10 03:11:22;;;;;;;23.83;11.77;;;1.10;99.90;0.60;99617.00;;;;4799620;28;94017;-67
2022/12/10 03:14:00;;;;;;;18.47;12.53;;;1.10;99.90;0.60;99618.00;;;;4811841;28;94563;-67
2022/12/10 03:16:39;;;;;;;19.97;11.93;;;0.90;99.90;0.60;99630.00;;;;4796102;28;92854;-67
2022/12/10 03:19:11;;;;;;;23.03;13.07;;;1.00;99.90;0.60;99612.00;;;;4792985;29;95822;-67
2022/12/10 03:21:41;;;;;;;22.47;11.80;;;1.00;99.90;0.60;99621.00;;;;4791704;29;93087;-67
2022/12/10 03:24:09;;;;;;;18.77;10.33;;;1.70;99.90;0.60;99614.00;;;;4780739;28;95712;-66
2022/12/10 03:26:37;;;;;;;26.07;13.40;;;0.90;99.90;0.60;99618.00;;;;4791901;29;98909;-69
2022/12/10 03:29:08;;;;;;;25.57;11.23;;;0.90;99.90;0.50;99612.00;;;;4810090;28;92199;-66
2022/12/10 03:31:35;;;;;;;26.20;13.63;;;0.80;99.90;0.50;99622.00;;;;4812582;29;92883;-70
2022/12/10 03:34:02;;;;;;;20.47;12.37;;;1.00;99.90;0.50;99614.00;;;;4791498;28;94325;-68
2022/12/10 03:36:30;;;;;;;25.13;14.23;;;0.90;99.90;0.50;99615.00;;;;4807515;28;94082;-69
2022/12/10 03:38:56;;;;;;;20.20;12.27;;;0.80;99.90;0.50;99610.00;;;;4807625;28;112585;-69
2022/12/10 03:41:22;;;;;;;24.57;13.03;;;1.20;99.90;0.50;99619.00;;;;4792556;28;108154;-68
2022/12/10 03:43:57;;;;;;;25.93;14.30;;;0.80;99.90;0.50;99606.00;;;;4811445;28;122837;-68
2022/12/10 03:46:25;;;;;;;24.87;13.17;;;1.90;99.90;0.50;99615.00;;;;4813631;28;93630;-68
2022/12/10 03:48:52;;;;;;;25.07;13.43;;;0.90;99.90;0.50;99618.00;;;;4813883;28;92948;-68
2022/12/10 03:51:19;;;;;;;23.40;12.43;;;0.80;99.90;0.50;99620.00;;;;4814235;28;97498;-68
2022/12/10 03:53:44;;;;;;;25.10;12.60;;;0.90;99.90;0.50;99605.00;;;;4819182;28;93164;-68
2022/12/10 03:56:10;;;;;;;27.00;14.07;;;0.80;99.90;0.50;99606.00;;;;4814396;28;93086;-69
2022/12/10 03:58:36;;;;;;;21.60;11.70;;;1.90;99.90;0.50;99618.00;;;;4814649;28;92999;-68
2022/12/10 04:01:05;;;;;;;22.47;12.80;;;0.80;99.90;0.50;99609.00;;;;4812285;28;109528;-68
2022/12/10 04:03:36;;;;;;;25.40;13.73;;;0.90;99.90;0.50;99612.00;;;;4811293;28;123170;-69
2022/12/10 04:06:05;;;;;;;23.13;12.17;;;0.90;99.90;0.50;99614.00;;;;4814396;28;94093;-70
2022/12/10 04:08:31;;;;;;;16.60;11.43;;;0.80;99.90;0.50;99622.00;;;;4801577;29;92903;-69
2022/12/10 04:11:05;;;;;;;22.43;12.23;;;0.80;99.90;0.50;99621.00;;;;4812108;28;109942;-69
2022/12/10 04:16:27;;;;;;;25.10;13.30;;;0.90;99.90;0.50;99623.00;;;;4809354;28;92960;-70
2022/12/10 04:19:06;;;;;;;20.53;12.57;;;0.80;99.90;0.50;99620.00;;;;4812026;28;92096;-69
2022/12/10 04:27:25;;;;;;;18.13;11.23;;;1.20;99.90;0.50;99624.00;;;;4817221;28;93854;-66
2022/12/10 04:29:51;;;;;;;28.67;13.10;;;0.90;99.90;0.50;99617.00;;;;4804145;28;93016;-66
2022/12/10 04:32:17;;;;;;;23.43;11.90;;;0.80;99.90;0.50;99618.00;;;;4815869;28;92833;-66
2022/12/10 04:34:43;;;;;;;17.20;12.63;;;0.60;99.90;0.50;99625.00;;;;4813133;28;93425;-68
2022/12/10 04:37:11;;;;;;;23.20;11.87;;;0.80;99.90;0.50;99626.00;;;;4813474;28;122402;-66
2022/12/10 04:39:37;;;;;;;20.47;11.87;;;1.80;99.90;0.50;99616.00;;;;4816339;28;93385;-67
2022/12/10 04:42:03;;;;;;;20.03;11.83;;;0.90;99.90;0.50;99629.00;;;;4812932;28;93633;-67
2022/12/10 04:44:28;;;;;;;22.30;12.13;;;0.90;99.90;0.50;99627.00;;;;4818735;28;112698;-67
2022/12/10 04:46:54;;;;;;;16.47;10.37;;;1.30;99.90;0.50;99632.00;;;;4817205;28;112296;-67
2022/12/10 04:49:19;;;;;;;16.03;10.23;;;0.90;99.90;0.50;99631.00;;;;4811775;28;114194;-67
2022/12/10 04:51:45;;;;;;;15.03;9.83;;;0.90;99.90;0.50;99628.00;;;;4815261;28;108246;-67
2022/12/10 04:54:13;;;;;;;19.47;12.57;;;0.90;99.90;0.50;99629.00;;;;4814201;28;93815;-67
2022/12/10 04:56:39;;;;;;;22.27;12.23;;;0.80;99.90;0.50;99629.00;;;;4817767;28;116752;-67
2022/12/10 04:59:06;;;;;;;18.60;10.77;;;0.90;99.90;0.50;99635.00;;;;4814509;28;92914;-67
2022/12/10 05:01:32;;;;;;;22.97;10.53;;;0.90;99.90;0.50;99633.00;;;;4813180;28;101509;-67
2022/12/10 05:04:04;;;;;;;16.67;10.50;;;0.80;99.90;0.50;99627.00;;;;4811402;28;93287;-68
2022/12/10 05:06:30;;;;;;;18.80;10.50;;;0.80;99.90;0.60;99628.00;;;;4814752;28;93305;-68
2022/12/10 05:08:57;;;;;;;21.80;11.27;;;0.80;99.90;0.60;99632.00;;;;4817209;28;113110;-68
2022/12/10 05:11:26;;;;;;;18.67;10.20;;;1.50;99.90;0.60;99629.00;;;;4801536;28;93921;-69
2022/12/10 05:13:53;;;;;;;23.30;11.73;;;0.80;99.90;0.60;99630.00;;;;4801971;29;93035;-67
2022/12/10 05:16:21;;;;;;;19.17;10.20;;;0.90;99.90;0.60;99630.00;;;;4813560;28;93969;-67
2022/12/10 05:18:47;;;;;;;18.87;10.17;;;0.90;99.90;0.60;99629.00;;;;4816859;28;92985;-67
2022/12/10 05:21:16;;;;;;;19.97;10.30;;;0.90;99.90;0.60;99623.00;;;;4816232;28;108699;-68
2022/12/10 05:23:48;;;;;;;17.60;10.37;;;0.90;99.90;0.50;99629.00;;;;4817368;28;109252;-67
2022/12/10 05:26:23;;;;;;;14.97;9.70;;;1.00;99.90;0.50;99623.00;;;;4812821;28;102911;-67
2022/12/10 05:28:55;;;;;;;19.27;9.90;;;1.00;99.90;0.50;99628.00;;;;4813326;28;92908;-67
2022/12/10 05:31:27;;;;;;;19.23;10.63;;;0.90;99.90;0.50;99621.00;;;;4817885;28;92827;-66
2022/12/10 05:33:54;;;;;;;22.60;10.57;;;0.90;99.90;0.50;99634.00;;;;4812537;28;92555;-67
2022/12/10 05:36:24;;;;;;;16.53;9.60;;;1.70;99.90;0.50;99618.00;;;;4815065;28;98240;-68
2022/12/10 05:38:50;;;;;;;19.13;10.17;;;0.90;99.90;0.50;99628.00;;;;4817573;28;97958;-68
2022/12/10 05:41:22;;;;;;;15.23;9.10;;;0.80;99.90;0.50;99618.00;;;;4817765;28;101699;-68
2022/12/10 05:43:48;;;;;;;14.53;10.07;;;1.50;99.90;0.50;99623.00;;;;4803303;28;93273;-68
2022/12/10 05:46:24;;;;;;;15.40;9.67;;;0.80;99.90;0.50;99626.00;;;;4817246;28;108988;-68
2022/12/10 05:48:50;;;;;;;13.67;9.70;;;0.90;99.90;0.50;99630.00;;;;4818096;28;94279;-67
2022/12/10 05:51:21;;;;;;;18.97;9.70;;;0.80;99.90;0.50;99636.00;;;;4814094;28;94583;-67
2022/12/10 05:53:47;;;;;;;18.00;9.93;;;0.80;99.90;0.50;99632.00;;;;4817350;28;94021;-67
2022/12/10 05:56:18;;;;;;;20.13;10.23;;;0.80;99.90;0.50;99632.00;;;;4792656;28;109622;-68
2022/12/10 05:58:46;;;;;;;13.90;8.90;;;0.90;99.90;0.50;99633.00;;;;4814919;28;92325;-66
2022/12/10 06:01:16;;;;;;;19.90;10.97;;;0.90;99.90;0.50;99640.00;;;;4820288;28;93003;-68
2022/12/10 06:03:42;;;;;;;15.87;9.30;;;1.60;99.90;0.50;99638.00;;;;4816261;28;93305;-68
2022/12/10 06:06:09;;;;;;;18.67;10.17;;;0.70;99.90;0.50;99641.00;;;;4812181;28;107828;-68
2022/12/10 06:08:36;;;;;;;18.63;9.20;;;0.90;99.90;0.50;99638.00;;;;4798594;28;93018;-66
2022/12/10 06:11:09;;;;;;;13.47;9.73;;;0.80;99.90;0.50;99636.00;;;;4819824;28;93084;-66
2022/12/10 06:13:35;;;;;;;15.70;9.20;;;0.70;99.90;0.40;99642.00;;;;4816147;28;114105;-69
2022/12/10 06:16:11;;;;;;;10.23;7.73;;;0.90;99.90;0.40;99627.00;;;;4802786;28;92748;-67
2022/12/10 06:18:37;;;;;;;14.63;8.87;;;0.70;99.90;0.40;99639.00;;;;4810813;28;93032;-67
2022/12/10 06:21:09;;;;;;;13.17;9.03;;;0.70;99.90;0.40;99646.00;;;;4815447;28;109326;-66
2022/12/10 06:23:37;;;;;;;15.07;10.50;;;0.80;99.90;0.40;99648.00;;;;4816023;28;92557;-66
2022/12/10 06:26:15;;;;;;;16.13;10.33;;;0.80;99.90;0.40;99638.00;;;;4816259;28;100048;-66
2022/12/10 06:28:41;;;;;;;17.23;9.63;;;0.70;99.90;0.40;99646.00;;;;4816622;28;109814;-67
2022/12/10 06:31:07;;;;;;;18.70;10.40;;;0.80;99.90;0.40;99648.00;;;;4814463;28;94066;-67
2022/12/10 06:33:34;;;;;;;20.40;9.23;;;0.80;99.90;0.40;99647.00;;;;4811598;28;123570;-67
2022/12/10 06:35:59;;;;;;;14.80;9.73;;;0.80;99.90;0.40;99648.00;;;;4815078;28;92973;-68
2022/12/10 06:38:25;;;;;;;17.90;9.97;;;0.70;99.90;0.40;99647.00;;;;4808168;28;109738;-67
2022/12/10 06:40:51;;;;;;;19.17;10.23;;;0.70;99.90;0.40;99654.00;;;;4813708;28;92718;-67
2022/12/10 06:43:17;;;;;;;16.00;10.27;;;0.80;99.90;0.40;99649.00;;;;4817152;28;92876;-67
2022/12/10 06:45:43;;;;;;;18.97;9.50;;;0.70;99.90;0.40;99658.00;;;;4815247;28;93722;-67
2022/12/10 06:48:09;;;;;;;14.33;8.63;;;0.80;99.90;0.40;99654.00;;;;4817413;28;92359;-66
2022/12/10 06:50:35;;;;;;;14.53;9.03;;;0.80;99.90;0.40;99663.00;;;;4822418;28;94133;-67
2022/12/10 06:53:02;;;;;;;9.00;5.80;;;0.60;99.90;0.40;99669.00;;;;4820762;28;121352;-67
2022/12/10 06:55:28;;;;;;;14.13;8.70;;;0.90;99.90;0.40;99659.00;;;;4802039;28;94496;-68
2022/12/10 06:57:54;;;;;;;13.57;8.37;;;0.80;99.90;0.40;99669.00;;;;4815929;28;92595;-67
2022/12/10 07:00:20;;;;;;;19.97;10.00;;;0.70;99.90;0.40;99672.00;;;;4820540;28;106963;-67
2022/12/10 07:02:47;;;;;;;17.30;10.00;;;0.80;99.90;0.40;99675.00;;;;4814387;28;93342;-66
2022/12/10 07:05:12;;;;;;;16.13;10.03;;;0.70;99.90;0.40;99669.00;;;;4815319;28;93442;-66
2022/12/10 07:07:38;;;;;;;20.47;9.53;;;0.70;99.90;0.40;99679.00;;;;4813348;28;92820;-67
2022/12/10 07:10:05;;;;;;;16.27;9.77;;;0.70;99.90;0.40;99680.00;;;;4812839;28;107539;-66
2022/12/10 07:12:31;;;;;;;17.20;9.67;;;0.70;99.90;0.40;99672.00;;;;4797248;28;92721;-67
2022/12/10 07:14:56;;;;;;;17.83;10.43;;;0.70;99.90;0.40;99677.00;;;;4808889;28;121616;-66
2022/12/10 07:17:22;;;;;;;12.03;9.63;;;0.80;99.90;0.40;99676.00;;;;4811468;28;93714;-67
2022/12/10 07:19:48;;;;;;;18.57;9.97;;;0.70;99.90;0.40;99682.00;;;;4792531;28;107016;-67
2022/12/10 07:22:13;;;;;;;18.40;10.27;;;0.70;99.90;0.40;99688.00;;;;4811220;28;123576;-67
2022/12/10 07:24:39;;;;;;;41.97;21.83;;;0.80;99.90;0.40;99671.00;;;;4808673;28;122627;-67
2022/12/10 07:27:06;;;;;;;22.50;14.03;;;0.70;99.90;0.40;99678.00;;;;4810601;28;114332;-68
2022/12/10 07:29:32;;;;;;;23.47;16.20;;;0.80;99.90;0.40;99681.00;;;;4816894;28;93088;-68
2022/12/10 07:31:57;;;;;;;24.80;12.57;;;0.70;99.90;0.40;99685.00;;;;4813302;28;121865;-67
2022/12/10 07:34:23;;;;;;;21.67;11.30;;;0.80;99.90;0.40;99681.00;;;;4817699;28;122057;-67
2022/12/10 07:36:49;;;;;;;33.07;21.00;;;0.80;99.90;0.40;99689.00;;;;4818491;28;112716;-68
2022/12/10 07:39:17;;;;;;;128.23;68.50;;;0.80;99.90;0.40;99689.00;;;;4818850;28;93711;-67
2022/12/10 07:41:52;;;;;;;21.67;14.53;;;0.70;99.90;0.40;99684.00;;;;4820377;28;94241;-67
2022/12/10 07:44:24;;;;;;;20.37;11.00;;;0.60;99.90;0.40;99684.00;;;;4814690;28;94118;-69
2022/12/10 07:46:52;;;;;;;19.20;14.77;;;0.80;99.90;0.40;99697.00;;;;4783611;28;92902;-69
2022/12/10 07:49:18;;;;;;;27.33;19.27;;;1.00;99.90;0.40;99698.00;;;;4813181;28;98090;-68
2022/12/10 07:51:49;;;;;;;15.30;12.30;;;0.80;99.90;0.40;99694.00;;;;4811411;28;94436;-68
2022/12/10 07:54:16;;;;;;;16.90;11.03;;;0.70;99.90;0.40;99701.00;;;;4812968;28;93481;-69
2022/12/10 07:56:42;;;;;;;18.17;10.63;;;0.70;99.90;0.40;99703.00;;;;4815561;28;96924;-68
2022/12/10 07:59:08;;;;;;;20.20;12.27;;;0.70;99.90;0.50;99703.00;;;;4815810;28;108557;-69
2022/12/10 08:01:34;;;;;;;84.23;44.97;;;0.80;99.90;0.50;99699.00;;;;4815663;28;121739;-68
2022/12/10 08:04:00;;;;;;;28.67;16.30;;;1.80;99.90;0.50;99702.00;;;;4811207;28;93408;-68
2022/12/10 08:06:28;;;;;;;28.53;18.47;;;0.90;99.90;0.50;99705.00;;;;4797595;28;93098;-67
2022/12/10 08:08:54;;;;;;;32.67;20.30;;;0.70;99.90;0.50;99699.00;;;;4798121;28;94317;-69
2022/12/10 08:11:22;;;;;;;19.47;11.27;;;0.90;99.90;0.50;99700.00;;;;4810747;28;107209;-69
2022/12/10 08:13:48;;;;;;;22.03;13.87;;;1.00;99.90;0.50;99705.00;;;;4780154;28;94168;-68
2022/12/10 08:16:22;;;;;;;30.80;21.13;;;1.60;99.90;0.50;99695.00;;;;4815220;28;93451;-68
2022/12/10 08:18:48;;;;;;;22.00;14.27;;;0.80;99.90;0.50;99704.00;;;;4819598;28;92981;-68
2022/12/10 08:21:18;;;;;;;18.03;12.40;;;0.80;99.90;0.50;99712.00;;;;4810341;28;121787;-69
2022/12/10 08:23:44;;;;;;;34.80;23.97;;;0.80;99.90;0.50;99708.00;;;;4810237;28;93832;-67
2022/12/10 08:26:16;;;;;;;22.03;15.60;;;0.80;99.90;0.50;99721.00;;;;4813929;28;92122;-67
2022/12/10 08:28:42;;;;;;;19.50;11.73;;;0.80;99.90;0.50;99709.00;;;;4814701;28;92818;-67
2022/12/10 08:31:11;;;;;;;19.83;11.67;;;0.90;99.90;0.60;99713.00;;;;4812582;28;122827;-67
2022/12/10 08:33:37;;;;;;;16.47;10.40;;;0.90;99.90;0.60;99723.00;;;;4814967;28;94066;-67
2022/12/10 08:36:06;;;;;;;13.20;9.07;;;0.80;99.90;0.60;99720.00;;;;4811996;28;93059;-68
2022/12/10 08:38:32;;;;;;;16.17;9.93;;;1.00;99.90;0.60;99719.00;;;;4809638;28;93107;-68
2022/12/10 08:40:58;;;;;;;16.07;10.30;;;0.90;99.90;0.60;99717.00;;;;4809618;28;93520;-68
2022/12/10 08:43:24;;;;;;;22.27;17.47;;;0.90;99.90;0.60;99710.00;;;;4810958;28;121959;-68
2022/12/10 08:45:49;;;;;;;13.43;10.17;;;1.80;99.90;0.60;99715.00;;;;4812569;28;93029;-68
2022/12/10 08:48:15;;;;;;;17.80;11.57;;;1.00;99.90;0.70;99730.00;;;;4813314;28;108092;-67
2022/12/10 08:50:41;;;;;;;17.53;9.43;;;0.90;99.90;0.70;99721.00;;;;4811630;28;121326;-67
2022/12/10 08:53:07;;;;;;;20.00;14.20;;;1.10;99.90;0.70;99720.00;;;;4814521;28;101958;-67
2022/12/10 08:55:33;;;;;;;21.33;14.47;;;1.00;99.90;0.70;99719.00;;;;4814636;28;92920;-67
2022/12/10 08:57:59;;;;;;;14.30;10.33;;;1.00;99.90;0.70;99722.00;;;;4809032;28;94370;-67
2022/12/10 09:00:26;;;;;;;21.50;11.77;;;1.00;99.90;0.70;99725.00;;;;4804810;28;122837;-68
2022/12/10 09:02:51;;;;;;;13.30;10.47;;;2.00;99.90;0.70;99729.00;;;;4811022;28;111282;-67
2022/12/10 09:05:17;;;;;;;14.20;10.30;;;1.00;99.90;0.70;99723.00;;;;4814956;28;97859;-68
2022/12/10 09:07:43;;;;;;;15.77;10.10;;;1.00;99.90;0.70;99733.00;;;;4813992;28;108350;-67
2022/12/10 09:10:13;;;;;;;14.73;9.70;;;1.10;99.90;0.70;99746.00;;;;4813061;28;106545;-68
2022/12/10 09:12:39;;;;;;;105.00;57.53;;;1.00;99.90;0.80;99740.00;;;;4797471;28;93125;-67
2022/12/10 09:15:06;;;;;;;27.40;15.87;;;2.10;99.90;0.70;99739.00;;;;4813124;28;109893;-67
2022/12/10 09:17:34;;;;;;;16.07;13.07;;;1.10;99.90;0.80;99745.00;;;;4808642;28;100144;-68
2022/12/10 09:20:00;;;;;;;13.63;11.20;;;1.10;99.90;0.80;99747.00;;;;4814986;28;94005;-70
2022/12/10 09:22:25;;;;;;;24.23;11.73;;;1.10;99.90;0.80;99742.00;;;;4808754;28;122035;-67
2022/12/10 09:24:51;;;;;;;16.50;9.13;;;1.20;99.90;0.80;99740.00;;;;4797151;28;116208;-67
2022/12/10 09:27:17;;;;;;;12.37;8.67;;;1.10;99.90;0.80;99734.00;;;;4813276;28;99817;-67
2022/12/10 09:29:42;;;;;;;11.37;8.27;;;1.10;99.90;0.80;99738.00;;;;4815385;28;122844;-68
2022/12/10 09:32:08;;;;;;;14.70;8.37;;;1.00;99.90;0.80;99732.00;;;;4810964;28;99382;-70
2022/12/10 09:34:34;;;;;;;15.30;9.17;;;1.10;99.90;0.80;99728.00;;;;4817332;28;93062;-68
2022/12/10 09:36:59;;;;;;;12.10;9.57;;;1.10;99.90;0.80;99745.00;;;;4815434;28;107937;-69
2022/12/10 09:39:25;;;;;;;13.33;10.13;;;1.20;99.90;0.80;99728.00;;;;4808367;28;122109;-67
2022/12/10 09:42:29;;;;;;;11.10;7.53;;;1.40;99.90;0.80;99732.00;;;;4809074;28;92974;-68
2022/12/10 09:45:36;;;;;;;14.17;9.10;;;1.10;99.90;0.90;99715.00;;;;4792151;28;93973;-68
2022/12/10 09:48:48;;;;;;;29.67;20.70;;;1.20;99.90;0.90;99724.00;;;;4796281;28;94322;-69
2022/12/10 09:51:32;;;;;;;20.17;11.10;;;1.20;99.90;0.90;99725.00;;;;4773785;28;93476;-68
2022/12/10 09:54:00;;;;;;;68.77;40.03;;;1.20;99.90;0.90;99723.00;;;;4798427;29;93840;-68
2022/12/10 09:56:36;;;;;;;86.80;49.97;;;1.30;99.90;0.80;99724.00;;;;4811874;28;93284;-67
2022/12/10 09:59:19;;;;;;;70.00;41.30;;;1.20;99.90;0.80;99739.00;;;;4813363;28;93076;-67
2022/12/10 10:01:49;;;;;;;50.07;30.57;;;1.20;99.90;0.80;99732.00;;;;4793145;28;93210;-69
2022/12/10 10:04:15;;;;;;;34.43;22.23;;;1.20;99.90;0.80;99722.00;;;;4792835;28;113113;-68
2022/12/10 10:06:41;;;;;;;22.80;15.07;;;2.20;99.90;0.80;99730.00;;;;4813166;28;112686;-68
2022/12/10 10:09:12;;;;;;;24.93;14.83;;;1.10;99.90;0.80;99730.00;;;;4795249;28;93227;-68
2022/12/10 10:11:38;;;;;;;38.30;21.50;;;1.20;99.90;0.80;99722.00;;;;4815350;28;111198;-68
2022/12/10 10:14:13;;;;;;;59.10;38.93;;;1.10;99.90;0.80;99726.00;;;;4814080;28;120794;-68
2022/12/10 10:16:53;;;;;;;31.57;18.50;;;1.20;99.90;0.80;99737.00;;;;4799211;28;99203;-68
2022/12/10 10:19:26;;;;;;;23.43;16.80;;;1.10;99.90;0.90;99728.00;;;;4814671;28;93022;-67
2022/12/10 10:21:52;;;;;;;19.70;12.23;;;1.20;99.90;0.80;99736.00;;;;4795022;28;102812;-68
2022/12/10 10:24:35;;;;;;;18.43;11.57;;;1.20;99.90;0.80;99726.00;;;;4811829;28;123434;-68
2022/12/10 10:27:16;;;;;;;18.33;10.53;;;1.20;99.90;0.80;99733.00;;;;4813237;28;92838;-68
2022/12/10 10:29:44;;;;;;;16.47;11.63;;;1.20;99.90;0.80;99728.00;;;;4811713;28;93029;-67
2022/12/10 10:32:21;;;;;;;14.03;9.27;;;1.20;99.90;0.80;99733.00;;;;4794310;28;92600;-68
2022/12/10 10:35:03;;;;;;;16.83;9.20;;;1.20;99.90;0.80;99741.00;;;;4809226;28;93084;-68
2022/12/10 10:37:35;;;;;;;18.53;11.70;;;1.10;99.90;0.80;99723.00;;;;4812551;28;105227;-68
2022/12/10 10:40:00;;;;;;;13.90;9.53;;;1.20;99.90;0.90;99728.00;;;;4802879;28;94091;-68
2022/12/10 10:42:45;;;;;;;14.17;9.00;;;1.20;99.90;0.80;99730.00;;;;4813012;28;120504;-68
2022/12/10 10:45:34;;;;;;;15.37;10.23;;;1.20;99.90;0.80;99709.00;;;;4798379;29;111585;-68
2022/12/10 10:48:07;;;;;;;16.07;10.27;;;1.10;99.90;0.90;99710.00;;;;4792042;29;92966;-68
2022/12/10 10:50:39;;;;;;;13.20;9.50;;;1.10;99.90;0.90;99719.00;;;;4810891;28;93059;-68
2022/12/10 10:53:32;;;;;;;12.97;9.13;;;1.20;99.90;0.80;99707.00;;;;4813456;28;93245;-67
2022/12/10 10:56:16;;;;;;;15.67;10.03;;;1.30;99.90;0.80;99706.00;;;;4810970;28;93373;-68
2022/12/10 10:59:07;;;;;;;14.73;10.23;;;1.20;99.90;0.80;99703.00;;;;4799054;28;92227;-68
2022/12/10 11:01:52;;;;;;;15.53;10.60;;;1.20;99.90;0.80;99707.00;;;;4800243;28;93193;-67
2022/12/10 11:04:28;;;;;;;14.93;10.37;;;1.20;99.90;0.80;99708.00;;;;4804918;28;93681;-67
2022/12/10 11:06:56;;;;;;;22.77;12.03;;;1.20;99.90;0.80;99709.00;;;;4800938;28;110146;-67
2022/12/10 11:09:28;;;;;;;32.13;20.43;;;1.20;99.90;0.80;99706.00;;;;4814940;28;93132;-67
2022/12/10 11:12:10;;;;;;;22.43;13.20;;;1.20;99.90;0.80;99714.00;;;;4803515;28;95902;-67
2022/12/10 11:14:45;;;;;;;24.90;13.93;;;1.10;99.90;0.80;99710.00;;;;4809830;28;94038;-67